Time;durP1;ratioP1;P1;durP2;ratioP2;P2;SDS_P1;SDS_P2;PMS_P1;PMS_P2;Temp;Humidity;BMP_temperature;BMP_pressure;BME280_temperature;BME280_humidity;BME280_pressure;Samples;Min_cycle;Max_cycle;Signal;HPM_P1;HPM_P2
2022/03/05 00:02:09;;;;;;;5.70;2.15;;;;;;;;;;5072135;28;20059;-69
2022/03/05 00:04:35;;;;;;;4.20;2.13;;;;;;;;;;5072471;28;20069;-70
2022/03/05 00:07:01;;;;;;;6.50;2.08;;;;;;;;;;5090299;28;20113;-69
2022/03/05 00:09:27;;;;;;;7.75;1.83;;;;;;;;;;5090821;28;20184;-70
2022/03/05 00:11:53;;;;;;;6.38;1.50;;;;;;;;;;5090806;28;20052;-70
2022/03/05 00:14:19;;;;;;;4.63;1.58;;;;;;;;;;5090347;28;20050;-69
2022/03/05 00:16:45;;;;;;;4.03;1.60;;;;;;;;;;5090310;28;20086;-69
2022/03/05 00:19:11;;;;;;;3.00;1.73;;;;;;;;;;5090388;28;20415;-69
2022/03/05 00:21:37;;;;;;;6.25;1.70;;;;;;;;;;5072566;28;20513;-70
2022/03/05 00:24:03;;;;;;;4.07;1.80;;;;;;;;;;5072035;28;20102;-68
2022/03/05 00:26:29;;;;;;;7.88;2.25;;;;;;;;;;5072223;28;20122;-69
2022/03/05 00:28:55;;;;;;;6.32;2.47;;;;;;;;;;5090198;28;20101;-68
2022/03/05 00:31:21;;;;;;;5.07;1.67;;;;;;;;;;5090224;28;20497;-70
2022/03/05 00:33:47;;;;;;;5.60;1.67;;;;;;;;;;5071919;28;20395;-71
2022/03/05 00:36:13;;;;;;;6.43;1.60;;;;;;;;;;5090128;28;20097;-69
2022/03/05 00:38:39;;;;;;;4.28;1.45;;;;;;;;;;5090184;28;20047;-70
2022/03/05 00:41:05;;;;;;;3.55;1.50;;;;;;;;;;5090320;28;20051;-70
2022/03/05 00:43:31;;;;;;;4.63;1.52;;;;;;;;;;5071492;28;20094;-70
2022/03/05 00:45:57;;;;;;;3.63;1.60;;;;;;;;;;5089811;28;20055;-70
2022/03/05 00:48:23;;;;;;;6.60;1.65;;;;;;;;;;5089742;28;20130;-70
2022/03/05 00:50:49;;;;;;;3.58;1.70;;;;;;;;;;5089938;28;20112;-70
2022/03/05 00:53:17;;;;;;;7.35;2.00;;;;;;;;;;5089849;28;20043;-70
2022/03/05 00:55:44;;;;;;;4.72;1.70;;;;;;;;;;5054887;28;20559;-70
2022/03/05 00:58:10;;;;;;;5.05;1.83;;;;;;;;;;5071206;28;20482;-69
2022/03/05 01:00:36;;;;;;;3.70;1.90;;;;;;;;;;5089557;28;20044;-71
2022/03/05 01:03:02;;;;;;;3.90;1.70;;;;;;;;;;5071224;28;20051;-70
2022/03/05 01:05:29;;;;;;;5.15;1.67;;;;;;;;;;5089195;28;20130;-70
2022/03/05 01:07:55;;;;;;;3.90;1.52;;;;;;;;;;5089459;28;20043;-70
2022/03/05 01:10:21;;;;;;;5.55;1.95;;;;;;;;;;5089411;28;20505;-70
2022/03/05 01:12:47;;;;;;;4.18;1.90;;;;;;;;;;5089351;28;20050;-70
2022/03/05 01:15:13;;;;;;;4.15;1.63;;;;;;;;;;5053869;28;20040;-70
2022/03/05 01:17:39;;;;;;;3.80;1.60;;;;;;;;;;5089424;28;20056;-70
2022/03/05 01:20:05;;;;;;;3.65;1.65;;;;;;;;;;5053615;28;20490;-70
2022/03/05 01:22:31;;;;;;;4.70;1.88;;;;;;;;;;5071078;28;20139;-70
2022/03/05 01:24:57;;;;;;;3.15;1.45;;;;;;;;;;5071010;28;20490;-69
2022/03/05 01:27:23;;;;;;;4.07;1.70;;;;;;;;;;5070219;28;20402;-70
2022/03/05 01:29:50;;;;;;;2.55;1.40;;;;;;;;;;5070914;28;20075;-70
2022/03/05 01:32:16;;;;;;;4.22;1.70;;;;;;;;;;5089264;28;20048;-70
2022/03/05 01:34:42;;;;;;;4.35;1.73;;;;;;;;;;5089032;28;20462;-69
2022/03/05 01:37:08;;;;;;;2.80;1.45;;;;;;;;;;5089115;28;20076;-69
2022/03/05 01:39:34;;;;;;;3.15;1.55;;;;;;;;;;5088721;28;20084;-70
2022/03/05 01:42:01;;;;;;;3.58;1.60;;;;;;;;;;5088774;28;20048;-70
2022/03/05 01:44:27;;;;;;;3.00;1.75;;;;;;;;;;5088779;28;20159;-70
2022/03/05 01:46:54;;;;;;;3.38;1.80;;;;;;;;;;5070108;28;20044;-70
2022/03/05 01:49:20;;;;;;;3.85;1.70;;;;;;;;;;5088732;28;20059;-70
2022/03/05 01:51:46;;;;;;;3.00;1.35;;;;;;;;;;5088827;28;20040;-69
2022/03/05 01:54:13;;;;;;;3.88;1.77;;;;;;;;;;5088668;28;20414;-68
2022/03/05 01:56:39;;;;;;;5.05;2.15;;;;;;;;;;5088712;28;20040;-68
2022/03/05 01:59:06;;;;;;;4.18;1.60;;;;;;;;;;5088333;28;20040;-69
2022/03/05 02:01:32;;;;;;;4.43;1.63;;;;;;;;;;5088665;28;20070;-69
2022/03/05 02:03:59;;;;;;;3.20;1.40;;;;;;;;;;5088268;28;20050;-69
2022/03/05 02:06:26;;;;;;;2.67;1.63;;;;;;;;;;5070456;28;20443;-69
2022/03/05 02:08:52;;;;;;;4.90;1.52;;;;;;;;;;5088642;28;20070;-69
2022/03/05 02:11:18;;;;;;;3.22;1.50;;;;;;;;;;5088551;28;20485;-69
2022/03/05 02:13:44;;;;;;;3.38;1.48;;;;;;;;;;5088488;28;20051;-69
2022/03/05 02:16:11;;;;;;;3.58;1.55;;;;;;;;;;5087783;28;20040;-69
2022/03/05 02:18:37;;;;;;;3.55;1.60;;;;;;;;;;5088436;28;20130;-69
2022/03/05 02:21:03;;;;;;;5.88;2.13;;;;;;;;;;5088551;28;20083;-70
2022/03/05 02:23:29;;;;;;;4.97;1.20;;;;;;;;;;5070101;28;20044;-70
2022/03/05 02:25:57;;;;;;;6.28;1.85;;;;;;;;;;5088149;28;20052;-70
2022/03/05 02:28:24;;;;;;;2.70;1.60;;;;;;;;;;5087675;28;20051;-69
2022/03/05 02:30:50;;;;;;;3.70;1.63;;;;;;;;;;5087006;28;20431;-69
2022/03/05 02:33:16;;;;;;;4.25;1.48;;;;;;;;;;5087397;28;20492;-69
2022/03/05 02:35:46;;;;;;;7.07;1.98;;;;;;;;;;5087213;28;20116;-70
2022/03/05 02:38:13;;;;;;;5.72;1.65;;;;;;;;;;5087022;28;20041;-70
2022/03/05 02:40:39;;;;;;;3.25;1.58;;;;;;;;;;5087564;28;20493;-69
2022/03/05 02:43:06;;;;;;;6.10;1.60;;;;;;;;;;5069428;28;20091;-70
2022/03/05 02:45:32;;;;;;;4.03;1.60;;;;;;;;;;5068811;28;20048;-70
2022/03/05 02:47:58;;;;;;;3.40;1.77;;;;;;;;;;5087550;28;20051;-69
2022/03/05 02:50:24;;;;;;;3.08;1.50;;;;;;;;;;5087752;28;20131;-70
2022/03/05 02:52:50;;;;;;;4.53;1.58;;;;;;;;;;5087322;28;20040;-70
2022/03/05 02:55:16;;;;;;;3.88;2.33;;;;;;;;;;5087336;28;20047;-70
2022/03/05 02:57:42;;;;;;;6.38;2.00;;;;;;;;;;5087372;28;20044;-69
2022/03/05 03:00:09;;;;;;;4.93;2.28;;;;;;;;;;5087254;28;20695;-70
2022/03/05 03:02:35;;;;;;;4.25;1.70;;;;;;;;;;5087279;28;20039;-70
2022/03/05 03:05:01;;;;;;;3.38;1.50;;;;;;;;;;5086904;28;20051;-68
2022/03/05 03:07:27;;;;;;;3.00;1.50;;;;;;;;;;5069319;28;20135;-70
2022/03/05 03:09:53;;;;;;;4.90;1.70;;;;;;;;;;5087449;28;20470;-70
2022/03/05 03:12:19;;;;;;;2.83;1.80;;;;;;;;;;5069172;28;20127;-70
2022/03/05 03:14:45;;;;;;;4.05;1.70;;;;;;;;;;5087173;28;20048;-70
2022/03/05 03:17:11;;;;;;;3.25;1.55;;;;;;;;;;5052479;28;20044;-69
2022/03/05 03:19:37;;;;;;;5.53;1.73;;;;;;;;;;5068573;28;20044;-70
2022/03/05 03:22:04;;;;;;;2.97;1.60;;;;;;;;;;5086982;28;20413;-69
2022/03/05 03:24:30;;;;;;;3.10;1.52;;;;;;;;;;5087146;28;20052;-70
2022/03/05 03:26:56;;;;;;;4.97;2.28;;;;;;;;;;5069061;28;20125;-69
2022/03/05 03:29:22;;;;;;;3.72;1.67;;;;;;;;;;5087230;28;20580;-70
2022/03/05 03:31:48;;;;;;;5.72;1.50;;;;;;;;;;5086910;28;20052;-69
2022/03/05 03:34:14;;;;;;;2.55;1.48;;;;;;;;;;5087299;28;20456;-71
2022/03/05 03:36:40;;;;;;;3.55;1.80;;;;;;;;;;5087140;28;20051;-71
2022/03/05 03:39:07;;;;;;;5.22;1.95;;;;;;;;;;5087136;28;20106;-71
2022/03/05 03:41:33;;;;;;;4.22;1.77;;;;;;;;;;5087159;28;20072;-70
2022/03/05 03:43:59;;;;;;;6.28;1.88;;;;;;;;;;5072164;28;20547;-70
2022/03/05 03:46:25;;;;;;;3.30;1.60;;;;;;;;;;5071992;28;20056;-71
2022/03/05 03:48:51;;;;;;;3.55;1.98;;;;;;;;;;5090417;28;20135;-72
2022/03/05 03:51:17;;;;;;;3.33;1.60;;;;;;;;;;5090357;28;20054;-71
2022/03/05 03:53:43;;;;;;;3.63;1.85;;;;;;;;;;5090483;28;20420;-72
2022/03/05 03:56:09;;;;;;;3.08;1.85;;;;;;;;;;5090477;28;20051;-71
2022/03/05 03:58:35;;;;;;;3.97;1.88;;;;;;;;;;5072022;28;20044;-71
2022/03/05 04:01:01;;;;;;;2.50;1.55;;;;;;;;;;5090038;28;20048;-71
2022/03/05 04:03:27;;;;;;;3.88;1.92;;;;;;;;;;5090135;28;20048;-71
2022/03/05 04:05:53;;;;;;;3.63;1.80;;;;;;;;;;5090124;28;20074;-69
2022/03/05 04:11:04;;;;;;;4.28;1.60;;;;;;;;;;5090041;28;20292;-69
2022/03/05 04:13:30;;;;;;;3.25;1.77;;;;;;;;;;5089757;28;20076;-69
2022/03/05 04:15:56;;;;;;;4.80;1.90;;;;;;;;;;5090105;28;20490;-69
2022/03/05 04:18:22;;;;;;;3.33;1.60;;;;;;;;;;5089540;28;20069;-69
2022/03/05 04:20:48;;;;;;;3.00;1.50;;;;;;;;;;5090005;28;20044;-68
2022/03/05 04:23:14;;;;;;;3.28;1.88;;;;;;;;;;5071684;28;20047;-69
2022/03/05 04:25:40;;;;;;;3.38;1.85;;;;;;;;;;5071538;28;20457;-69
2022/03/05 04:28:07;;;;;;;3.28;1.67;;;;;;;;;;5089375;28;20374;-69
2022/03/05 04:30:33;;;;;;;2.72;1.50;;;;;;;;;;5089938;28;20131;-69
2022/03/05 04:32:59;;;;;;;3.53;2.10;;;;;;;;;;5071414;28;20535;-69
2022/03/05 04:35:26;;;;;;;3.40;1.98;;;;;;;;;;5089999;28;20105;-69
2022/03/05 04:37:52;;;;;;;3.05;1.50;;;;;;;;;;5071961;28;20044;-69
2022/03/05 04:40:19;;;;;;;2.75;1.50;;;;;;;;;;5089532;28;20135;-69
2022/03/05 04:42:45;;;;;;;2.60;1.70;;;;;;;;;;5089742;28;20040;-69
2022/03/05 04:45:11;;;;;;;2.80;1.50;;;;;;;;;;5089831;28;20067;-69
2022/03/05 04:47:38;;;;;;;4.53;1.60;;;;;;;;;;5089798;28;20496;-69
2022/03/05 04:50:05;;;;;;;2.60;1.45;;;;;;;;;;5089665;28;20054;-69
2022/03/05 04:52:31;;;;;;;4.47;1.98;;;;;;;;;;5071147;28;20047;-69
2022/03/05 04:54:57;;;;;;;3.17;1.52;;;;;;;;;;5089812;28;20402;-69
2022/03/05 04:57:24;;;;;;;2.83;1.50;;;;;;;;;;5089874;28;20494;-68
2022/03/05 04:59:51;;;;;;;3.45;1.60;;;;;;;;;;5089702;28;20409;-69
2022/03/05 05:02:17;;;;;;;2.60;1.50;;;;;;;;;;5089966;28;20044;-69
2022/03/05 05:04:43;;;;;;;2.55;1.58;;;;;;;;;;5070842;28;20114;-69
2022/03/05 05:07:09;;;;;;;2.47;1.48;;;;;;;;;;5089671;28;20490;-69
2022/03/05 05:09:35;;;;;;;2.08;1.30;;;;;;;;;;5089595;28;20044;-69
2022/03/05 05:12:05;;;;;;;2.38;1.40;;;;;;;;;;5071333;28;20355;-70
2022/03/05 05:14:31;;;;;;;3.63;1.60;;;;;;;;;;5088519;28;20063;-70
2022/03/05 05:16:57;;;;;;;4.00;1.70;;;;;;;;;;5088907;28;20383;-69
2022/03/05 05:19:29;;;;;;;2.55;1.58;;;;;;;;;;5088733;28;20040;-69
2022/03/05 05:21:57;;;;;;;3.05;1.85;;;;;;;;;;5088668;28;20094;-69
2022/03/05 05:24:24;;;;;;;4.00;1.48;;;;;;;;;;5070100;28;20076;-69
2022/03/05 05:26:50;;;;;;;2.25;1.50;;;;;;;;;;5088590;28;20052;-69
2022/03/05 05:29:16;;;;;;;4.93;1.80;;;;;;;;;;5088839;28;20085;-69
2022/03/05 05:31:43;;;;;;;2.33;1.60;;;;;;;;;;5088461;28;20052;-69
2022/03/05 05:34:09;;;;;;;4.18;1.73;;;;;;;;;;5088279;28;20074;-69
2022/03/05 05:36:38;;;;;;;3.53;1.35;;;;;;;;;;5070142;28;20044;-69
2022/03/05 05:39:04;;;;;;;;;;;;;;;;;;5088208;28;20469;-69
2022/03/05 05:41:31;;;;;;;4.30;1.77;;;;;;;;;;5088199;28;19920;-69
2022/03/05 05:43:57;;;;;;;6.07;1.48;;;;;;;;;;5088238;28;20052;-69
2022/03/05 05:46:23;;;;;;;2.45;1.60;;;;;;;;;;5070306;28;20096;-69
2022/03/05 05:48:49;;;;;;;5.65;1.52;;;;;;;;;;5069411;28;20097;-70
2022/03/05 05:51:15;;;;;;;2.10;1.20;;;;;;;;;;5088428;28;20398;-69
2022/03/05 05:53:41;;;;;;;2.65;1.45;;;;;;;;;;5088217;28;20044;-69
2022/03/05 05:56:07;;;;;;;2.30;1.25;;;;;;;;;;5070155;28;20519;-69
2022/03/05 05:58:33;;;;;;;2.22;1.40;;;;;;;;;;5088105;28;20504;-69
2022/03/05 06:00:59;;;;;;;2.67;1.40;;;;;;;;;;5087581;28;20050;-69
2022/03/05 06:03:25;;;;;;;2.10;1.40;;;;;;;;;;5088114;28;20201;-70
2022/03/05 06:05:51;;;;;;;3.35;1.42;;;;;;;;;;5087062;28;20498;-69
2022/03/05 06:08:17;;;;;;;1.70;1.20;;;;;;;;;;5088101;28;20047;-68
2022/03/05 06:10:43;;;;;;;2.58;1.55;;;;;;;;;;5068045;28;20048;-69
2022/03/05 06:13:09;;;;;;;3.15;1.40;;;;;;;;;;5087496;28;20048;-69
2022/03/05 06:15:35;;;;;;;3.08;1.70;;;;;;;;;;5088117;28;20070;-68
2022/03/05 06:18:02;;;;;;;2.42;1.40;;;;;;;;;;5087782;28;20166;-69
2022/03/05 06:20:28;;;;;;;4.40;1.67;;;;;;;;;;5088361;28;20057;-69
2022/03/05 06:22:54;;;;;;;3.10;1.55;;;;;;;;;;5087206;28;20051;-70
2022/03/05 06:25:20;;;;;;;2.33;1.35;;;;;;;;;;5087822;28;20167;-69
2022/03/05 06:27:46;;;;;;;2.00;1.30;;;;;;;;;;5087991;28;20056;-69
2022/03/05 06:30:12;;;;;;;2.78;1.30;;;;;;;;;;5069666;28;20398;-70
2022/03/05 06:32:38;;;;;;;3.55;1.60;;;;;;;;;;5068675;28;20139;-71
2022/03/05 06:35:05;;;;;;;3.05;1.45;;;;;;;;;;5087412;28;20080;-70
2022/03/05 06:37:32;;;;;;;3.67;1.40;;;;;;;;;;5069441;28;20554;-70
2022/03/05 06:39:58;;;;;;;8.65;1.70;;;;;;;;;;5069808;28;20040;-69
2022/03/05 06:42:24;;;;;;;26.65;2.72;;;;;;;;;;5069326;28;20086;-72
2022/03/05 06:44:50;;;;;;;4.10;1.55;;;;;;;;;;5087729;28;20047;-72
2022/03/05 06:47:17;;;;;;;5.25;1.75;;;;;;;;;;5087565;28;20047;-72
2022/03/05 06:49:43;;;;;;;7.05;2.00;;;;;;;;;;5087682;28;20130;-70
2022/03/05 06:52:12;;;;;;;5.90;1.70;;;;;;;;;;5087824;28;20311;-71
2022/03/05 06:54:38;;;;;;;4.15;1.50;;;;;;;;;;5087709;28;20453;-70
2022/03/05 06:57:05;;;;;;;4.70;1.38;;;;;;;;;;5087282;28;20051;-70
2022/03/05 06:59:31;;;;;;;3.95;1.77;;;;;;;;;;5087733;28;20039;-70
2022/03/05 07:01:57;;;;;;;5.07;1.40;;;;;;;;;;5087349;28;20055;-71
2022/03/05 07:04:23;;;;;;;2.63;1.20;;;;;;;;;;5087324;28;20097;-72
2022/03/05 07:06:49;;;;;;;4.35;1.58;;;;;;;;;;5087399;28;20048;-71
2022/03/05 07:09:15;;;;;;;2.28;1.50;;;;;;;;;;5087076;28;20560;-70
2022/03/05 07:11:41;;;;;;;4.65;1.35;;;;;;;;;;5087199;28;20763;-71
2022/03/05 07:14:07;;;;;;;3.63;1.17;;;;;;;;;;5087506;28;20101;-70
2022/03/05 07:16:33;;;;;;;3.28;1.88;;;;;;;;;;5069398;28;20083;-71
2022/03/05 07:18:59;;;;;;;2.95;1.30;;;;;;;;;;5091521;28;20514;-70
2022/03/05 07:21:25;;;;;;;2.72;1.60;;;;;;;;;;5092185;28;20055;-71
2022/03/05 07:23:51;;;;;;;3.78;1.27;;;;;;;;;;5091797;28;20516;-71
2022/03/05 07:26:18;;;;;;;2.28;1.50;;;;;;;;;;5091669;28;20036;-71
2022/03/05 07:28:45;;;;;;;2.83;1.48;;;;;;;;;;5091981;28;20112;-72
2022/03/05 07:31:11;;;;;;;3.30;1.40;;;;;;;;;;5091396;28;20063;-73
2022/03/05 07:33:37;;;;;;;5.07;2.30;;;;;;;;;;5073144;28;20067;-73
2022/03/05 07:36:04;;;;;;;2.28;1.20;;;;;;;;;;5091752;28;20052;-71
2022/03/05 07:38:31;;;;;;;3.75;1.50;;;;;;;;;;5073399;28;20059;-72
2022/03/05 07:40:57;;;;;;;2.40;1.35;;;;;;;;;;5072865;28;20104;-73
2022/03/05 07:43:23;;;;;;;1.98;1.25;;;;;;;;;;5090893;28;20040;-74
2022/03/05 07:45:49;;;;;;;4.30;1.38;;;;;;;;;;5056843;28;20051;-71
2022/03/05 07:48:19;;;;;;;9.60;1.77;;;;;;;;;;5091305;28;20048;-70
2022/03/05 07:50:45;;;;;;;4.10;1.50;;;;;;;;;;5091979;28;20044;-71
2022/03/05 07:53:11;;;;;;;3.97;1.40;;;;;;;;;;5091707;28;20051;-71
2022/03/05 07:55:37;;;;;;;2.53;1.40;;;;;;;;;;5091178;28;20441;-71
2022/03/05 07:58:03;;;;;;;3.47;1.63;;;;;;;;;;5072901;28;20512;-70
2022/03/05 08:00:29;;;;;;;3.15;1.30;;;;;;;;;;5091721;28;20040;-69
2022/03/05 08:02:55;;;;;;;3.90;1.30;;;;;;;;;;5072426;28;20629;-69
2022/03/05 08:05:22;;;;;;;3.30;1.60;;;;;;;;;;5091209;28;20079;-69
2022/03/05 08:07:48;;;;;;;3.13;1.40;;;;;;;;;;5072994;28;20044;-71
2022/03/05 08:10:14;;;;;;;7.13;1.63;;;;;;;;;;5091443;28;20055;-71
2022/03/05 08:12:40;;;;;;;4.22;1.40;;;;;;;;;;5090680;28;20055;-70
2022/03/05 08:15:07;;;;;;;2.33;1.40;;;;;;;;;;5072008;28;20131;-71
2022/03/05 08:17:33;;;;;;;4.85;1.52;;;;;;;;;;5072487;28;20040;-69
2022/03/05 08:19:59;;;;;;;3.53;1.55;;;;;;;;;;5090896;28;20075;-71
2022/03/05 08:22:25;;;;;;;1.95;1.20;;;;;;;;;;5090727;28;20515;-72
2022/03/05 08:24:52;;;;;;;4.20;1.48;;;;;;;;;;5090074;28;20047;-73
2022/03/05 08:27:18;;;;;;;4.40;1.70;;;;;;;;;;5055794;28;20044;-70
2022/03/05 08:29:44;;;;;;;8.43;1.85;;;;;;;;;;5090562;28;20132;-67
2022/03/05 08:32:10;;;;;;;6.70;1.60;;;;;;;;;;5090265;28;20505;-67
2022/03/05 08:34:36;;;;;;;9.80;2.03;;;;;;;;;;5090187;28;20518;-66
2022/03/05 08:37:03;;;;;;;4.00;1.40;;;;;;;;;;5072199;28;20051;-67
2022/03/05 08:39:29;;;;;;;4.55;1.48;;;;;;;;;;5090117;28;20135;-67
2022/03/05 08:41:56;;;;;;;4.45;1.65;;;;;;;;;;5090049;28;21537;-65
2022/03/05 08:44:22;;;;;;;4.10;1.77;;;;;;;;;;5071924;28;20044;-66
2022/03/05 08:46:48;;;;;;;4.22;1.88;;;;;;;;;;5090175;28;20043;-67
2022/03/05 08:49:14;;;;;;;4.07;1.55;;;;;;;;;;5090339;28;20047;-67
2022/03/05 08:51:40;;;;;;;4.85;1.50;;;;;;;;;;5071564;28;20051;-66
2022/03/05 08:54:06;;;;;;;5.53;1.55;;;;;;;;;;5090342;28;20047;-67
2022/03/05 08:56:32;;;;;;;3.83;1.52;;;;;;;;;;5072003;28;20047;-66
2022/03/05 08:58:58;;;;;;;4.72;1.52;;;;;;;;;;5090280;28;20391;-67
2022/03/05 09:01:24;;;;;;;3.60;1.60;;;;;;;;;;5089479;28;20122;-69
2022/03/05 09:03:50;;;;;;;7.78;1.40;;;;;;;;;;5089944;28;20044;-67
2022/03/05 09:06:16;;;;;;;3.67;1.50;;;;;;;;;;5089622;28;20480;-67
2022/03/05 09:08:42;;;;;;;6.75;1.73;;;;;;;;;;5090041;28;20087;-66
2022/03/05 09:11:08;;;;;;;4.65;1.42;;;;;;;;;;5071472;28;20070;-67
2022/03/05 09:13:34;;;;;;;5.10;1.70;;;;;;;;;;5089272;28;20410;-68
2022/03/05 09:16:01;;;;;;;3.10;1.50;;;;;;;;;;5089859;28;20040;-68
2022/03/05 09:18:27;;;;;;;3.70;1.65;;;;;;;;;;5071463;28;20490;-67
2022/03/05 09:20:54;;;;;;;3.58;1.60;;;;;;;;;;5089595;28;20460;-67
2022/03/05 09:23:20;;;;;;;3.63;1.88;;;;;;;;;;5088260;28;20043;-66
2022/03/05 09:25:46;;;;;;;2.63;1.45;;;;;;;;;;5089174;28;20067;-68
2022/03/05 09:28:12;;;;;;;3.08;1.40;;;;;;;;;;5089383;28;20094;-67
2022/03/05 09:30:38;;;;;;;3.80;1.67;;;;;;;;;;5089115;28;20040;-67
2022/03/05 09:33:04;;;;;;;3.35;2.00;;;;;;;;;;5089364;28;20105;-67
2022/03/05 09:35:31;;;;;;;3.20;1.70;;;;;;;;;;5089437;28;20113;-69
2022/03/05 09:37:57;;;;;;;4.10;1.80;;;;;;;;;;5088715;28;20047;-69
2022/03/05 09:40:23;;;;;;;5.50;1.67;;;;;;;;;;5088521;28;20044;-68
2022/03/05 09:42:49;;;;;;;3.45;1.77;;;;;;;;;;5089220;28;20130;-67
2022/03/05 09:45:15;;;;;;;2.80;1.42;;;;;;;;;;5070722;28;20059;-68
2022/03/05 09:47:42;;;;;;;3.28;1.58;;;;;;;;;;5089278;28;20040;-68
2022/03/05 09:50:09;;;;;;;3.10;1.73;;;;;;;;;;5088792;28;20097;-68
2022/03/05 09:52:35;;;;;;;8.73;1.75;;;;;;;;;;5053545;28;20040;-68
2022/03/05 09:55:01;;;;;;;3.83;1.85;;;;;;;;;;5070966;28;20127;-67
2022/03/05 09:57:27;;;;;;;3.20;1.70;;;;;;;;;;5088890;28;20059;-69
2022/03/05 09:59:54;;;;;;;3.97;1.67;;;;;;;;;;5088916;28;20051;-68
2022/03/05 10:02:20;;;;;;;3.53;1.98;;;;;;;;;;5088001;28;20044;-69
2022/03/05 10:04:46;;;;;;;3.45;1.80;;;;;;;;;;5088643;28;20056;-69
2022/03/05 10:07:16;;;;;;;3.50;2.10;;;;;;;;;;5088799;28;20040;-68
2022/03/05 10:09:44;;;;;;;3.33;1.60;;;;;;;;;;5088493;28;20116;-69
2022/03/05 10:12:30;;;;;;;4.22;2.03;;;;;;;;;;5088150;28;20048;-68
2022/03/05 10:15:22;;;;;;;3.17;1.80;;;;;;;;;;5088581;28;20502;-68
2022/03/05 10:17:56;;;;;;;3.47;1.92;;;;;;;;;;5085720;28;20066;-67
2022/03/05 10:20:24;;;;;;;3.22;2.03;;;;;;;;;;5053662;28;20406;-68
2022/03/05 10:22:55;;;;;;;3.78;2.25;;;;;;;;;;5088530;28;20076;-68
2022/03/05 10:25:31;;;;;;;3.88;2.10;;;;;;;;;;5069867;28;20470;-67
2022/03/05 10:28:01;;;;;;;5.10;2.17;;;;;;;;;;5070539;28;20048;-67
2022/03/05 10:30:31;;;;;;;3.72;1.85;;;;;;;;;;5088618;28;20414;-68
2022/03/05 10:32:58;;;;;;;3.63;2.17;;;;;;;;;;5088438;28;20056;-68
2022/03/05 10:35:24;;;;;;;3.63;2.38;;;;;;;;;;5087987;28;20127;-66
2022/03/05 10:37:53;;;;;;;3.30;2.25;;;;;;;;;;5088333;28;20052;-67
2022/03/05 10:40:34;;;;;;;3.13;2.20;;;;;;;;;;5088497;28;20036;-67
2022/03/05 10:43:01;;;;;;;5.63;2.33;;;;;;;;;;5088061;28;20048;-67
2022/03/05 10:45:29;;;;;;;3.80;2.10;;;;;;;;;;5088996;28;20067;-67
2022/03/05 10:47:56;;;;;;;4.97;2.28;;;;;;;;;;5072575;28;20048;-67
2022/03/05 10:50:26;;;;;;;4.50;2.70;;;;;;;;;;5087788;28;20546;-67
2022/03/05 10:52:52;;;;;;;4.18;2.35;;;;;;;;;;5091411;28;20093;-67
2022/03/05 10:55:22;;;;;;;5.28;3.00;;;;;;;;;;5092101;28;20363;-68
2022/03/05 10:57:57;;;;;;;6.53;3.60;;;;;;;;;;5075650;28;20044;-67
2022/03/05 11:00:23;;;;;;;5.95;3.40;;;;;;;;;;5092298;28;20055;-67
2022/03/05 11:02:50;;;;;;;5.72;3.47;;;;;;;;;;5074203;28;20338;-68
2022/03/05 11:05:20;;;;;;;6.13;3.83;;;;;;;;;;5091935;28;20260;-68
2022/03/05 11:07:48;;;;;;;4.95;3.22;;;;;;;;;;5092622;28;20047;-68
2022/03/05 11:10:14;;;;;;;4.93;3.20;;;;;;;;;;5092168;28;20044;-68
2022/03/05 11:12:41;;;;;;;5.75;3.25;;;;;;;;;;5091557;28;20105;-69
2022/03/05 11:15:08;;;;;;;5.35;3.42;;;;;;;;;;5079677;28;20147;-68
2022/03/05 11:17:35;;;;;;;7.32;3.17;;;;;;;;;;5085330;28;20048;-68
2022/03/05 11:20:02;;;;;;;7.35;4.22;;;;;;;;;;5091656;28;20044;-68
2022/03/05 11:22:28;;;;;;;21.02;10.40;;;;;;;;;;5089868;28;20179;-68
2022/03/05 11:24:54;;;;;;;25.33;13.93;;;;;;;;;;5079274;28;20044;-67
2022/03/05 11:27:20;;;;;;;32.30;18.13;;;;;;;;;;5089681;28;20233;-68
2022/03/05 11:29:56;;;;;;;40.33;21.08;;;;;;;;;;5090210;28;20044;-68
2022/03/05 11:32:23;;;;;;;41.50;23.27;;;;;;;;;;5077243;28;20359;-69
2022/03/05 11:34:52;;;;;;;49.83;24.70;;;;;;;;;;5076379;28;20091;-67
2022/03/05 11:37:31;;;;;;;47.10;24.67;;;;;;;;;;5079309;28;20036;-67
2022/03/05 11:39:59;;;;;;;46.25;24.65;;;;;;;;;;5073994;28;20119;-67
2022/03/05 11:42:35;;;;;;;50.97;27.55;;;;;;;;;;5076382;28;20047;-67
2022/03/05 11:45:21;;;;;;;56.72;29.60;;;;;;;;;;5088663;28;20079;-67
2022/03/05 11:47:47;;;;;;;51.65;26.77;;;;;;;;;;5089996;28;20405;-67
2022/03/05 11:50:15;;;;;;;51.83;26.65;;;;;;;;;;5089145;28;20417;-67
2022/03/05 11:52:41;;;;;;;50.03;26.92;;;;;;;;;;5089164;28;20039;-68
2022/03/05 11:55:14;;;;;;;54.00;27.67;;;;;;;;;;5089661;28;20148;-68
2022/03/05 11:58:03;;;;;;;49.22;25.80;;;;;;;;;;5076299;28;20379;-68
2022/03/05 12:00:31;;;;;;;45.58;24.42;;;;;;;;;;5087669;28;20405;-67
2022/03/05 12:02:58;;;;;;;49.00;25.98;;;;;;;;;;5088179;28;20048;-68
2022/03/05 12:05:42;;;;;;;44.97;24.13;;;;;;;;;;5088637;28;20043;-68
2022/03/05 12:08:09;;;;;;;49.55;24.23;;;;;;;;;;5089610;28;20074;-68
2022/03/05 12:10:35;;;;;;;50.20;24.77;;;;;;;;;;5090295;28;20074;-68
2022/03/05 12:13:03;;;;;;;41.58;22.80;;;;;;;;;;5089051;28;20047;-67
2022/03/05 12:15:32;;;;;;;48.55;24.40;;;;;;;;;;5088735;28;20062;-68
2022/03/05 12:17:59;;;;;;;44.55;23.50;;;;;;;;;;5073342;28;20041;-68
2022/03/05 12:20:27;;;;;;;39.15;21.67;;;;;;;;;;5077894;28;20054;-67
2022/03/05 12:23:04;;;;;;;40.72;22.23;;;;;;;;;;5088447;28;20040;-71
2022/03/05 12:25:35;;;;;;;40.83;21.40;;;;;;;;;;5088066;28;20044;-71
2022/03/05 12:28:01;;;;;;;41.15;21.40;;;;;;;;;;5088351;28;20032;-71
2022/03/05 12:30:33;;;;;;;36.25;20.23;;;;;;;;;;5080893;28;20413;-70
2022/03/05 12:33:03;;;;;;;35.35;20.55;;;;;;;;;;5091370;28;20064;-71
2022/03/05 12:35:29;;;;;;;35.38;19.67;;;;;;;;;;5087165;28;20051;-70
2022/03/05 12:37:56;;;;;;;34.60;19.40;;;;;;;;;;5089218;28;20040;-71
2022/03/05 12:40:24;;;;;;;32.83;18.50;;;;;;;;;;5089627;28;20220;-69
2022/03/05 12:42:51;;;;;;;32.55;17.48;;;;;;;;;;5091153;28;20130;-71
2022/03/05 12:45:18;;;;;;;33.88;19.20;;;;;;;;;;5090564;28;20036;-72
2022/03/05 12:47:45;;;;;;;34.13;19.08;;;;;;;;;;5064047;28;20440;-71
2022/03/05 12:50:26;;;;;;;30.92;17.35;;;;;;;;;;5059168;28;20047;-71
2022/03/05 12:52:56;;;;;;;29.10;16.20;;;;;;;;;;5077606;28;20048;-70
2022/03/05 12:55:23;;;;;;;31.95;16.50;;;;;;;;;;5094882;28;20044;-71
2022/03/05 12:57:50;;;;;;;28.88;16.08;;;;;;;;;;5095935;28;20439;-69
2022/03/05 13:00:16;;;;;;;30.42;16.70;;;;;;;;;;5078603;28;20421;-70
2022/03/05 13:02:42;;;;;;;29.80;15.75;;;;;;;;;;5095968;28;20047;-71
2022/03/05 13:05:12;;;;;;;31.50;16.73;;;;;;;;;;5095021;28;20044;-70
2022/03/05 13:07:38;;;;;;;28.40;16.38;;;;;;;;;;5095349;28;20038;-72
2022/03/05 13:10:08;;;;;;;37.40;17.70;;;;;;;;;;5097908;28;20048;-70
2022/03/05 13:12:35;;;;;;;42.38;21.98;;;;;;;;;;5093856;28;20105;-71
2022/03/05 13:15:01;;;;;;;40.17;21.45;;;;;;;;;;5076831;28;20050;-70
2022/03/05 13:17:27;;;;;;;40.35;20.35;;;;;;;;;;5095908;28;20052;-69
2022/03/05 13:20:00;;;;;;;39.65;19.38;;;;;;;;;;5095286;28;20055;-69
2022/03/05 13:22:27;;;;;;;43.60;19.95;;;;;;;;;;5105651;28;20062;-70
2022/03/05 13:24:53;;;;;;;35.55;18.02;;;;;;;;;;5084750;28;20046;-69
2022/03/05 13:27:24;;;;;;;34.50;16.70;;;;;;;;;;5106754;28;20113;-68
2022/03/05 13:29:51;;;;;;;34.15;17.20;;;;;;;;;;5092046;28;20054;-69
2022/03/05 13:32:17;;;;;;;30.50;16.63;;;;;;;;;;5094890;28;20051;-70
2022/03/05 13:34:43;;;;;;;35.28;17.90;;;;;;;;;;5089917;28;20155;-69
2022/03/05 13:37:10;;;;;;;34.67;16.83;;;;;;;;;;5089533;28;20039;-70
2022/03/05 13:39:36;;;;;;;32.28;16.25;;;;;;;;;;5054470;28;20528;-68
2022/03/05 13:42:10;;;;;;;29.15;15.77;;;;;;;;;;5069964;28;21079;-68
2022/03/05 13:44:37;;;;;;;30.08;16.20;;;;;;;;;;5088535;28;20088;-68
2022/03/05 13:47:05;;;;;;;28.15;15.07;;;;;;;;;;5084796;28;20043;-68
2022/03/05 13:49:31;;;;;;;30.63;15.27;;;;;;;;;;5109352;28;20401;-69
2022/03/05 13:51:59;;;;;;;26.58;14.98;;;;;;;;;;5109539;28;20062;-68
2022/03/05 13:54:38;;;;;;;31.88;15.80;;;;;;;;;;5092390;28;20052;-71
2022/03/05 13:57:05;;;;;;;31.90;15.32;;;;;;;;;;5106447;28;20053;-70
2022/03/05 13:59:44;;;;;;;30.65;14.18;;;;;;;;;;5074010;28;20044;-71
2022/03/05 14:02:11;;;;;;;26.65;14.48;;;;;;;;;;5094377;28;20143;-71
2022/03/05 14:04:56;;;;;;;27.42;14.18;;;;;;;;;;5088432;28;20443;-70
2022/03/05 14:07:22;;;;;;;27.92;15.02;;;;;;;;;;5070259;28;20043;-72
2022/03/05 14:09:48;;;;;;;27.95;14.07;;;;;;;;;;5070164;28;20404;-71
2022/03/05 14:12:14;;;;;;;26.08;13.73;;;;;;;;;;5088253;28;20100;-72
2022/03/05 14:14:40;;;;;;;25.95;13.90;;;;;;;;;;5054123;28;20528;-72
2022/03/05 14:17:07;;;;;;;25.30;12.88;;;;;;;;;;5103228;28;20405;-72
2022/03/05 14:19:34;;;;;;;25.20;14.40;;;;;;;;;;5072859;28;20410;-70
2022/03/05 14:22:10;;;;;;;26.73;14.35;;;;;;;;;;5069683;28;20048;-71
2022/03/05 14:24:37;;;;;;;26.33;13.60;;;;;;;;;;5088595;28;20101;-74
2022/03/05 14:27:14;;;;;;;22.67;12.85;;;;;;;;;;5089023;28;20452;-73
2022/03/05 14:29:40;;;;;;;26.08;14.27;;;;;;;;;;5091019;28;20182;-73
2022/03/05 14:32:06;;;;;;;25.10;12.60;;;;;;;;;;5109067;28;20521;-73
2022/03/05 14:34:32;;;;;;;24.05;13.27;;;;;;;;;;5108924;28;20048;-72
2022/03/05 14:36:58;;;;;;;24.35;13.18;;;;;;;;;;5109023;28;20409;-72
2022/03/05 14:39:25;;;;;;;22.13;12.65;;;;;;;;;;5108966;28;20048;-72
2022/03/05 14:41:51;;;;;;;21.83;11.88;;;;;;;;;;5109758;28;20051;-72